sensor_id;sensor_type;location;lat;lon;timestamp;temperature;humidity
50957;DHT22;55361;50.876;20.634;2022-07-06T00:00:13;24;75
50957;DHT22;55361;50.876;20.634;2022-07-06T00:07:17;24;72
50957;DHT22;55361;50.876;20.634;2022-07-06T00:14:14;24;72
50957;DHT22;55361;50.876;20.634;2022-07-06T00:21:06;24;72
50957;DHT22;55361;50.876;20.634;2022-07-06T00:28:03;24;72
50957;DHT22;55361;50.876;20.634;2022-07-06T00:35:18;24;72
50957;DHT22;55361;50.876;20.634;2022-07-06T00:42:16;24;72
50957;DHT22;55361;50.876;20.634;2022-07-06T00:49:03;24;72
50957;DHT22;55361;50.876;20.634;2022-07-06T00:56:03;24;72
50957;DHT22;55361;50.876;20.634;2022-07-06T01:00:24;24;72
50957;DHT22;55361;50.876;20.634;2022-07-06T01:07:05;26;73
50957;DHT22;55361;50.876;20.634;2022-07-06T01:14:17;26;73
50957;DHT22;55361;50.876;20.634;2022-07-06T01:21:17;26;73
50957;DHT22;55361;50.876;20.634;2022-07-06T01:28:04;26;73
50957;DHT22;55361;50.876;20.634;2022-07-06T01:35:19;26;83
50957;DHT22;55361;50.876;20.634;2022-07-06T01:42:08;26;83
50957;DHT22;55361;50.876;20.634;2022-07-06T01:49:04;26;83
50957;DHT22;55361;50.876;20.634;2022-07-06T01:56:21;26;83
50957;DHT22;55361;50.876;20.634;2022-07-06T02:00:23;26;83
50957;DHT22;55361;50.876;20.634;2022-07-06T02:07:08;25;81
50957;DHT22;55361;50.876;20.634;2022-07-06T02:14:17;25;81
50957;DHT22;55361;50.876;20.634;2022-07-06T02:21:20;25;81
50957;DHT22;55361;50.876;20.634;2022-07-06T02:28:15;25;81
50957;DHT22;55361;50.876;20.634;2022-07-06T02:35:04;25;84
50957;DHT22;55361;50.876;20.634;2022-07-06T02:42:17;25;84
50957;DHT22;55361;50.876;20.634;2022-07-06T02:49:18;25;84
50957;DHT22;55361;50.876;20.634;2022-07-06T02:56:17;25;84
50957;DHT22;55361;50.876;20.634;2022-07-06T03:00:19;25;84
50957;DHT22;55361;50.876;20.634;2022-07-06T03:07:16;24;88
50957;DHT22;55361;50.876;20.634;2022-07-06T03:14:06;24;88
50957;DHT22;55361;50.876;20.634;2022-07-06T03:21:17;24;88
50957;DHT22;55361;50.876;20.634;2022-07-06T03:28:18;24;88
50957;DHT22;55361;50.876;20.634;2022-07-06T03:35:21;24;89
50957;DHT22;55361;50.876;20.634;2022-07-06T03:42:18;24;89
50957;DHT22;55361;50.876;20.634;2022-07-06T03:49:04;24;89
50957;DHT22;55361;50.876;20.634;2022-07-06T03:56:42;24;89
50957;DHT22;55361;50.876;20.634;2022-07-06T04:00:18;24;89
50957;DHT22;55361;50.876;20.634;2022-07-06T04:07:15;24;90
50957;DHT22;55361;50.876;20.634;2022-07-06T04:14:15;24;90
50957;DHT22;55361;50.876;20.634;2022-07-06T04:21:17;24;90
50957;DHT22;55361;50.876;20.634;2022-07-06T04:28:03;24;90
50957;DHT22;55361;50.876;20.634;2022-07-06T04:35:06;23;91
50957;DHT22;55361;50.876;20.634;2022-07-06T04:42:18;23;91
50957;DHT22;55361;50.876;20.634;2022-07-06T04:49:03;23;91
50957;DHT22;55361;50.876;20.634;2022-07-06T04:56:18;23;91
50957;DHT22;55361;50.876;20.634;2022-07-06T05:00:22;23;91
50957;DHT22;55361;50.876;20.634;2022-07-06T05:07:06;23;91
50957;DHT22;55361;50.876;20.634;2022-07-06T05:14:04;23;91
50957;DHT22;55361;50.876;20.634;2022-07-06T05:21:03;23;91
50957;DHT22;55361;50.876;20.634;2022-07-06T05:28:05;23;91
50957;DHT22;55361;50.876;20.634;2022-07-06T05:35:15;23;92
50957;DHT22;55361;50.876;20.634;2022-07-06T05:42:17;23;92
50957;DHT22;55361;50.876;20.634;2022-07-06T05:56:08;23;92
50957;DHT22;55361;50.876;20.634;2022-07-06T06:00:08;23;92
50957;DHT22;55361;50.876;20.634;2022-07-06T06:07:18;23;92
50957;DHT22;55361;50.876;20.634;2022-07-06T06:14:15;23;92
50957;DHT22;55361;50.876;20.634;2022-07-06T06:21:14;23;92
50957;DHT22;55361;50.876;20.634;2022-07-06T06:28:21;23;92
50957;DHT22;55361;50.876;20.634;2022-07-06T06:35:21;24;91
50957;DHT22;55361;50.876;20.634;2022-07-06T06:42:17;24;91
50957;DHT22;55361;50.876;20.634;2022-07-06T06:49:19;24;91
50957;DHT22;55361;50.876;20.634;2022-07-06T06:56:18;24;91
50957;DHT22;55361;50.876;20.634;2022-07-06T07:00:19;24;91
50957;DHT22;55361;50.876;20.634;2022-07-06T07:07:07;24;92
50957;DHT22;55361;50.876;20.634;2022-07-06T07:14:01;24;92
50957;DHT22;55361;50.876;20.634;2022-07-06T07:21:05;24;92
50957;DHT22;55361;50.876;20.634;2022-07-06T07:28:13;24;92
50957;DHT22;55361;50.876;20.634;2022-07-06T07:35:15;24;92
50957;DHT22;55361;50.876;20.634;2022-07-06T07:42:02;24;92
50957;DHT22;55361;50.876;20.634;2022-07-06T07:49:22;24;92
50957;DHT22;55361;50.876;20.634;2022-07-06T07:56:05;24;92
50957;DHT22;55361;50.876;20.634;2022-07-06T08:00:10;24;92
50957;DHT22;55361;50.876;20.634;2022-07-06T08:07:19;23;92
50957;DHT22;55361;50.876;20.634;2022-07-06T08:14:20;23;92
50957;DHT22;55361;50.876;20.634;2022-07-06T08:21:09;23;92
50957;DHT22;55361;50.876;20.634;2022-07-06T08:28:13;23;92
50957;DHT22;55361;50.876;20.634;2022-07-06T08:42:20;23;93
50957;DHT22;55361;50.876;20.634;2022-07-06T08:49:08;23;93
50957;DHT22;55361;50.876;20.634;2022-07-06T08:56:14;23;93
50957;DHT22;55361;50.876;20.634;2022-07-06T09:00:23;23;93
50957;DHT22;55361;50.876;20.634;2022-07-06T09:14:08;23;92
50957;DHT22;55361;50.876;20.634;2022-07-06T09:21:27;23;92
50957;DHT22;55361;50.876;20.634;2022-07-06T09:28:16;23;92
50957;DHT22;55361;50.876;20.634;2022-07-06T09:42:15;23;92
50957;DHT22;55361;50.876;20.634;2022-07-06T09:49:24;23;92
50957;DHT22;55361;50.876;20.634;2022-07-06T09:56:05;23;92
50957;DHT22;55361;50.876;20.634;2022-07-06T10:00:20;23;92
50957;DHT22;55361;50.876;20.634;2022-07-06T10:14:21;23;92
50957;DHT22;55361;50.876;20.634;2022-07-06T10:21:19;23;92
50957;DHT22;55361;50.876;20.634;2022-07-06T10:28:19;23;92
50957;DHT22;55361;50.876;20.634;2022-07-06T10:35:09;23;92
50957;DHT22;55361;50.876;20.634;2022-07-06T10:42:59;23;93
50957;DHT22;55361;50.876;20.634;2022-07-06T10:49:23;23;93
50957;DHT22;55361;50.876;20.634;2022-07-06T10:56:11;23;93
50957;DHT22;55361;50.876;20.634;2022-07-06T11:00:23;23;93
50957;DHT22;55361;50.876;20.634;2022-07-06T11:14:34;23;93
50957;DHT22;55361;50.876;20.634;2022-07-06T11:21:37;23;93
50957;DHT22;55361;50.876;20.634;2022-07-06T11:28:27;23;93
50957;DHT22;55361;50.876;20.634;2022-07-06T11:35:21;23;93
50957;DHT22;55361;50.876;20.634;2022-07-06T11:42:03;23;93
50957;DHT22;55361;50.876;20.634;2022-07-06T11:49:32;23;93
50957;DHT22;55361;50.876;20.634;2022-07-06T11:56:18;23;93
50957;DHT22;55361;50.876;20.634;2022-07-06T12:00:23;23;93
50957;DHT22;55361;50.876;20.634;2022-07-06T12:14:21;24;93
50957;DHT22;55361;50.876;20.634;2022-07-06T12:21:24;24;93
50957;DHT22;55361;50.876;20.634;2022-07-06T12:28:25;24;93
50957;DHT22;55361;50.876;20.634;2022-07-06T12:35:03;24;93
50957;DHT22;55361;50.876;20.634;2022-07-06T12:42:21;24;92
50957;DHT22;55361;50.876;20.634;2022-07-06T12:49:40;24;92
50957;DHT22;55361;50.876;20.634;2022-07-06T12:56:32;24;92
50957;DHT22;55361;50.876;20.634;2022-07-06T13:07:05;24;92
50957;DHT22;55361;50.876;20.634;2022-07-06T13:14:20;24.72;90
50957;DHT22;55361;50.876;20.634;2022-07-06T13:21:04;24.72;90
50957;DHT22;55361;50.876;20.634;2022-07-06T13:28:05;24.72;90
50957;DHT22;55361;50.876;20.634;2022-07-06T13:35:15;24.72;90
50957;DHT22;55361;50.876;20.634;2022-07-06T13:42:15;25;88
50957;DHT22;55361;50.876;20.634;2022-07-06T13:49:19;25;88
50957;DHT22;55361;50.876;20.634;2022-07-06T13:56:11;25;88
50957;DHT22;55361;50.876;20.634;2022-07-06T14:00:22;25;88
50957;DHT22;55361;50.876;20.634;2022-07-06T14:07:03;25;88
50957;DHT22;55361;50.876;20.634;2022-07-06T14:14:03;25;96
50957;DHT22;55361;50.876;20.634;2022-07-06T14:21:17;25;96
50957;DHT22;55361;50.876;20.634;2022-07-06T14:28:15;25;96
50957;DHT22;55361;50.876;20.634;2022-07-06T14:35:14;25;96
50957;DHT22;55361;50.876;20.634;2022-07-06T14:42:18;26.67;94
50957;DHT22;55361;50.876;20.634;2022-07-06T14:49:19;26.67;94
50957;DHT22;55361;50.876;20.634;2022-07-06T14:56:09;26.67;94
50957;DHT22;55361;50.876;20.634;2022-07-06T15:00:01;26.67;94
50957;DHT22;55361;50.876;20.634;2022-07-06T15:07:07;26.67;94
50957;DHT22;55361;50.876;20.634;2022-07-06T15:14:16;24.42;69
50957;DHT22;55361;50.876;20.634;2022-07-06T15:21:17;24.42;69
50957;DHT22;55361;50.876;20.634;2022-07-06T15:28:05;24.42;69
50957;DHT22;55361;50.876;20.634;2022-07-06T15:35:20;24.42;69
50957;DHT22;55361;50.876;20.634;2022-07-06T15:42:04;24;69
50957;DHT22;55361;50.876;20.634;2022-07-06T15:49:05;24;69
50957;DHT22;55361;50.876;20.634;2022-07-06T15:56:19;24;69
50957;DHT22;55361;50.876;20.634;2022-07-06T16:00:07;24;69
50957;DHT22;55361;50.876;20.634;2022-07-06T16:07:05;24;69
50957;DHT22;55361;50.876;20.634;2022-07-06T16:14:15;24;69
50957;DHT22;55361;50.876;20.634;2022-07-06T16:21:05;24;69
50957;DHT22;55361;50.876;20.634;2022-07-06T16:28:04;24;69
50957;DHT22;55361;50.876;20.634;2022-07-06T16:35:16;24;69
50957;DHT22;55361;50.876;20.634;2022-07-06T16:42:21;24;69
50957;DHT22;55361;50.876;20.634;2022-07-06T16:49:17;24;69
50957;DHT22;55361;50.876;20.634;2022-07-06T16:56:06;24;69
50957;DHT22;55361;50.876;20.634;2022-07-06T17:00:11;24;69
50957;DHT22;55361;50.876;20.634;2022-07-06T17:07:05;24;69
50957;DHT22;55361;50.876;20.634;2022-07-06T17:14:17;24.19;72
50957;DHT22;55361;50.876;20.634;2022-07-06T17:21:16;24.19;72
50957;DHT22;55361;50.876;20.634;2022-07-06T17:28:16;24.19;72
50957;DHT22;55361;50.876;20.634;2022-07-06T17:35:03;24.19;72
50957;DHT22;55361;50.876;20.634;2022-07-06T17:42:22;24.13;73
50957;DHT22;55361;50.876;20.634;2022-07-06T17:49:17;24.13;73
50957;DHT22;55361;50.876;20.634;2022-07-06T17:56:19;24.13;73
50957;DHT22;55361;50.876;20.634;2022-07-06T18:00:14;24.13;73
50957;DHT22;55361;50.876;20.634;2022-07-06T18:07:17;24.13;73
50957;DHT22;55361;50.876;20.634;2022-07-06T18:14:16;24.05;72
50957;DHT22;55361;50.876;20.634;2022-07-06T18:21:05;24.05;72
50957;DHT22;55361;50.876;20.634;2022-07-06T18:28:22;24.05;72
50957;DHT22;55361;50.876;20.634;2022-07-06T18:35:02;24.05;72
50957;DHT22;55361;50.876;20.634;2022-07-06T18:49:30;24.05;72
50957;DHT22;55361;50.876;20.634;2022-07-06T18:56:04;24.05;72
50957;DHT22;55361;50.876;20.634;2022-07-06T19:00:23;24.05;72
50957;DHT22;55361;50.876;20.634;2022-07-06T19:07:16;24.05;72
50957;DHT22;55361;50.876;20.634;2022-07-06T19:21:18;23;72
50957;DHT22;55361;50.876;20.634;2022-07-06T19:28:04;23;72
50957;DHT22;55361;50.876;20.634;2022-07-06T19:35:06;23;72
50957;DHT22;55361;50.876;20.634;2022-07-06T19:49:03;23;72
50957;DHT22;55361;50.876;20.634;2022-07-06T19:56:15;23;72
50957;DHT22;55361;50.876;20.634;2022-07-06T20:00:01;23;72
50957;DHT22;55361;50.876;20.634;2022-07-06T20:07:02;23;72
50957;DHT22;55361;50.876;20.634;2022-07-06T20:21:16;24;70
50957;DHT22;55361;50.876;20.634;2022-07-06T20:28:15;24;70
50957;DHT22;55361;50.876;20.634;2022-07-06T20:35:14;24;70
50957;DHT22;55361;50.876;20.634;2022-07-06T20:49:03;24;70
50957;DHT22;55361;50.876;20.634;2022-07-06T20:56:05;24;70
50957;DHT22;55361;50.876;20.634;2022-07-06T21:00:16;24;70
50957;DHT22;55361;50.876;20.634;2022-07-06T21:07:04;24;70
50957;DHT22;55361;50.876;20.634;2022-07-06T21:21:02;24;71
50957;DHT22;55361;50.876;20.634;2022-07-06T21:28:02;24;71
50957;DHT22;55361;50.876;20.634;2022-07-06T21:35:03;24;71
50957;DHT22;55361;50.876;20.634;2022-07-06T21:49:21;23;74
50957;DHT22;55361;50.876;20.634;2022-07-06T21:56:03;23;74
50957;DHT22;55361;50.876;20.634;2022-07-06T22:00:21;23;74
50957;DHT22;55361;50.876;20.634;2022-07-06T22:07:15;23;74
50957;DHT22;55361;50.876;20.634;2022-07-06T22:14:18;23;74
50957;DHT22;55361;50.876;20.634;2022-07-06T22:21:24;23;74
50957;DHT22;55361;50.876;20.634;2022-07-06T22:28:03;23;74
50957;DHT22;55361;50.876;20.634;2022-07-06T22:35:05;23;74
50957;DHT22;55361;50.876;20.634;2022-07-06T22:42:21;23;74
50957;DHT22;55361;50.876;20.634;2022-07-06T22:49:19;23;74
50957;DHT22;55361;50.876;20.634;2022-07-06T22:56:25;23;74
50957;DHT22;55361;50.876;20.634;2022-07-06T23:07:06;24;97
50957;DHT22;55361;50.876;20.634;2022-07-06T23:14:16;24;97
50957;DHT22;55361;50.876;20.634;2022-07-06T23:21:27;24;97
50957;DHT22;55361;50.876;20.634;2022-07-06T23:28:16;24;97
50957;DHT22;55361;50.876;20.634;2022-07-06T23:35:11;25;97
50957;DHT22;55361;50.876;20.634;2022-07-06T23:42:17;25;97
50957;DHT22;55361;50.876;20.634;2022-07-06T23:49:06;25;97
50957;DHT22;55361;50.876;20.634;2022-07-06T23:56:04;25;97
